Time;durP1;ratioP1;P1;durP2;ratioP2;P2;SDS_P1;SDS_P2;PMS_P1;PMS_P2;Temp;Humidity;BMP_temperature;BMP_pressure;BME280_temperature;BME280_humidity;BME280_pressure;Samples;Min_cycle;Max_cycle;Signal;HPM_P1;HPM_P2
2022/08/01 00:01:35;;;;;;;5.60;3.25;;;;;;;20.78;49.46;95105.72;5077401;28;20036;-84
2022/08/01 00:04:01;;;;;;;8.80;2.75;;;;;;;20.19;49.51;95028.09;5078788;28;20115;-85
2022/08/01 00:06:27;;;;;;;4.53;3.10;;;;;;;21.03;49.31;95138.81;5079342;28;20536;-85
2022/08/01 00:08:52;;;;;;;9.68;3.10;;;;;;;20.77;49.56;95099.56;5077875;28;20482;-84
2022/08/01 00:11:18;;;;;;;6.38;3.35;;;;;;;20.77;49.63;95075.28;5078967;28;20040;-85
2022/08/01 00:13:43;;;;;;;7.40;4.35;;;;;;;20.56;51.61;95063.09;5079615;28;20038;-85
2022/08/01 00:16:08;;;;;;;5.63;4.57;;;;;;;20.86;51.42;95090.56;5077521;28;20460;-85
2022/08/01 00:18:35;;;;;;;10.90;5.75;;;;;;;21.01;52.10;95151.84;5078189;28;20036;-85
2022/08/01 00:21:03;;;;;;;8.63;5.72;;;;;;;20.02;52.89;95026.41;5081144;28;20043;-84
2022/08/01 00:23:29;;;;;;;10.88;5.40;;;;;;;20.22;53.72;95097.41;5083294;28;20119;-84
2022/08/01 00:25:54;;;;;;;7.43;5.72;;;;;;;19.69;54.23;95036.47;5080989;28;20134;-84
2022/08/01 00:28:20;;;;;;;7.88;5.70;;;;;;;20.20;54.76;95147.34;5081248;28;20055;-86
2022/08/01 00:30:45;;;;;;;11.23;5.97;;;;;;;20.30;54.74;95165.75;5080480;28;20032;-86
2022/08/01 00:33:11;;;;;;;10.32;6.30;;;;;;;18.01;54.69;94834.81;5080489;28;20044;-84
2022/08/01 00:35:36;;;;;;;7.10;5.95;;;;;;;19.52;54.80;95069.75;5080772;28;20035;-85
2022/08/01 00:38:02;;;;;;;7.07;6.38;;;;;;;19.71;55.29;95103.41;5087931;28;20051;-85
2022/08/01 00:40:27;;;;;;;9.63;6.10;;;;;;;19.63;55.49;95102.38;5084081;28;20268;-85
2022/08/01 00:42:53;;;;;;;8.95;5.55;;;;;;;19.33;55.04;95039.06;5102345;28;20534;-85
2022/08/01 00:45:18;;;;;;;12.27;6.20;;;;;;;19.45;55.55;95082.13;5102494;28;20450;-85
2022/08/01 00:47:44;;;;;;;7.57;4.97;;;;;;;19.31;55.47;95062.78;5084348;28;20502;-85
2022/08/01 00:50:10;;;;;;;9.63;5.60;;;;;;;19.88;55.83;95163.22;5084127;28;20067;-85
2022/08/01 00:52:37;;;;;;;7.50;5.15;;;;;;;19.73;55.11;95123.47;5102147;28;20039;-85
2022/08/01 00:55:03;;;;;;;6.47;5.40;;;;;;;19.05;56.03;95050.38;5083391;28;20035;-86
2022/08/01 00:57:29;;;;;;;6.10;5.25;;;;;;;19.38;55.50;95104.16;5082964;28;20119;-85
2022/08/01 00:59:56;;;;;;;6.75;4.68;;;;;;;19.52;56.07;95125.44;5084037;28;20413;-85
2022/08/01 01:02:21;;;;;;;7.00;5.10;;;;;;;19.68;55.78;95123.72;5083642;28;20833;-85
2022/08/01 01:04:47;;;;;;;6.10;5.47;;;;;;;20.04;55.23;95142.63;5083090;28;20031;-85
2022/08/01 01:07:31;;;;;;;5.78;5.18;;;;;;;20.09;55.00;95133.53;5083661;28;20090;-85
2022/08/01 01:10:15;;;;;;;9.23;5.05;;;;;;;19.92;54.52;95080.69;5084131;28;20537;-85
2022/08/01 01:13:12;;;;;;;7.35;4.90;;;;;;;20.33;54.29;95128.22;5082916;28;20035;-85
2022/08/01 01:15:49;;;;;;;5.60;5.00;;;;;;;20.34;54.33;95131.69;5063639;28;20047;-85
2022/08/01 01:18:22;;;;;;;6.03;5.07;;;;;;;20.25;54.68;95133.66;5099007;28;20557;-85
2022/08/01 01:21:18;;;;;;;10.15;5.45;;;;;;;20.44;54.04;95127.78;5098124;28;20104;-85
2022/08/01 01:24:28;;;;;;;6.20;4.50;;;;;;;20.36;54.34;95126.75;5081782;28;20043;-84
2022/08/01 01:27:06;;;;;;;9.18;4.72;;;;;;;20.55;53.66;95116.19;5101307;28;20100;-84
2022/08/01 01:29:39;;;;;;;9.43;4.90;;;;;;;20.11;53.78;95065.91;5101198;28;20067;-84
2022/08/01 01:32:20;;;;;;;6.10;5.00;;;;;;;20.28;53.97;95098.78;5081652;28;20499;-83
2022/08/01 01:34:49;;;;;;;9.40;5.15;;;;;;;20.24;54.47;95105.94;5079318;28;20031;-84
2022/08/01 01:37:18;;;;;;;6.38;4.40;;;;;;;19.92;53.98;95052.97;5100385;28;20039;-84
2022/08/01 01:39:48;;;;;;;8.15;4.75;;;;;;;20.13;53.83;95053.69;5082319;28;20157;-85
2022/08/01 01:42:16;;;;;;;10.35;4.78;;;;;;;20.29;54.45;95102.28;5082400;28;20073;-84
2022/08/01 01:44:44;;;;;;;7.68;4.93;;;;;;;19.73;53.84;95013.16;5081947;28;20046;-85
2022/08/01 01:47:12;;;;;;;8.07;4.32;;;;;;;20.32;54.11;95085.41;5082778;28;20093;-84
2022/08/01 01:49:41;;;;;;;7.85;4.82;;;;;;;20.57;54.36;95105.09;5102005;28;20516;-85
2022/08/01 01:52:08;;;;;;;5.88;4.75;;;;;;;19.92;54.45;95010.69;5083173;28;20115;-84
2022/08/01 01:54:39;;;;;;;6.15;4.40;;;;;;;20.39;55.10;95099.94;5101393;28;20035;-84
2022/08/01 01:57:06;;;;;;;5.95;4.20;;;;;;;20.02;54.98;95018.34;5082696;28;20431;-84
2022/08/01 01:59:34;;;;;;;7.90;4.22;;;;;;;20.36;54.61;95071.00;5101624;28;20075;-84
2022/08/01 02:02:03;;;;;;;10.73;4.55;;;;;;;20.30;54.59;95069.59;5082352;28;20027;-84
2022/08/01 02:04:30;;;;;;;6.78;4.82;;;;;;;20.54;54.70;95097.66;5078918;28;20032;-84
2022/08/01 02:06:57;;;;;;;5.53;4.05;;;;;;;19.73;53.40;94964.75;5097246;28;20327;-84
2022/08/01 02:09:24;;;;;;;16.80;6.45;;;;;;;20.27;54.00;95058.72;5082136;28;20420;-85
2022/08/01 02:11:51;;;;;;;13.00;4.60;;;;;;;20.14;53.54;95016.78;5082026;28;20131;-84
2022/08/01 02:14:18;;;;;;;12.05;4.05;;;;;;;20.02;51.81;94986.03;5079202;28;20051;-84
2022/08/01 02:16:50;;;;;;;12.20;4.65;;;;;;;20.28;53.53;95018.00;5079251;28;20900;-84
2022/08/01 02:19:19;;;;;;;8.68;4.65;;;;;;;20.44;54.41;95049.66;5081918;28;20050;-84
2022/08/01 02:22:00;;;;;;;12.10;4.38;;;;;;;20.69;54.04;95086.19;5082428;28;20038;-84
2022/08/01 02:24:44;;;;;;;5.13;3.97;;;;;;;20.67;52.68;95094.63;5082179;28;20035;-85
2022/08/01 02:27:14;;;;;;;12.43;3.67;;;;;;;19.92;51.70;94980.31;5081498;28;20043;-84
2022/08/01 02:29:45;;;;;;;6.72;3.40;;;;;;;19.85;51.08;95005.09;5082463;28;20165;-85
2022/08/01 02:32:30;;;;;;;10.13;3.00;;;;;;;20.50;50.99;95089.50;5082117;28;20046;-84
2022/08/01 02:35:00;;;;;;;7.68;3.78;;;;;;;20.25;51.36;95063.66;5099509;28;20041;-85
2022/08/01 02:37:28;;;;;;;10.27;3.25;;;;;;;19.68;51.12;94983.03;5081071;28;20681;-84
2022/08/01 02:39:55;;;;;;;10.88;3.80;;;;;;;20.37;51.32;95087.91;5081190;28;20032;-84
2022/08/01 02:42:23;;;;;;;11.88;4.25;;;;;;;19.80;51.82;95018.78;5100124;28;20134;-85
2022/08/01 02:44:51;;;;;;;7.50;3.85;;;;;;;19.57;52.07;95006.88;5081721;28;20519;-85
2022/08/01 02:47:20;;;;;;;6.43;3.97;;;;;;;19.73;52.09;94998.94;5081305;28;20528;-84
2022/08/01 02:49:48;;;;;;;8.13;3.55;;;;;;;20.21;51.87;95093.19;5081441;28;20417;-84
2022/08/01 02:52:16;;;;;;;3.95;3.35;;;;;;;19.74;52.69;95060.50;5081972;28;20035;-84
2022/08/01 02:54:45;;;;;;;12.52;4.05;;;;;;;19.79;52.88;95022.59;5081454;28;20036;-84
2022/08/01 02:57:12;;;;;;;10.85;4.10;;;;;;;20.03;53.13;95092.59;5081860;28;20032;-85
2022/08/01 02:59:39;;;;;;;6.13;3.90;;;;;;;19.09;53.24;94970.66;5082780;28;20031;-84
2022/08/01 03:02:07;;;;;;;7.32;3.78;;;;;;;18.89;53.77;94960.75;5081427;28;20466;-84
2022/08/01 03:04:35;;;;;;;6.35;3.67;;;;;;;19.71;53.81;95101.50;5082112;28;20031;-85
2022/08/01 03:07:02;;;;;;;8.52;4.30;;;;;;;19.22;53.47;95039.44;5100736;28;20281;-84
2022/08/01 03:09:32;;;;;;;6.63;3.60;;;;;;;19.34;53.14;95044.09;5081542;28;20426;-86
2022/08/01 03:12:01;;;;;;;9.68;3.63;;;;;;;19.19;53.14;95028.59;5100645;28;20428;-84
2022/08/01 03:14:29;;;;;;;5.97;3.95;;;;;;;19.26;53.19;95050.34;5081038;28;20149;-84
2022/08/01 03:16:57;;;;;;;8.43;3.72;;;;;;;19.14;53.17;95034.97;5081155;28;20425;-83
2022/08/01 03:19:27;;;;;;;11.75;3.70;;;;;;;19.48;53.32;95092.25;5081792;28;20104;-84
2022/08/01 03:21:58;;;;;;;7.60;3.85;;;;;;;18.99;53.57;95032.91;5080855;28;20035;-85
2022/08/01 03:24:27;;;;;;;8.85;3.80;;;;;;;18.69;53.68;94988.44;5099336;28;20036;-84
2022/08/01 03:26:55;;;;;;;6.90;3.92;;;;;;;18.65;53.21;94992.88;5080535;28;20096;-85
2022/08/01 03:29:25;;;;;;;11.27;4.15;;;;;;;18.75;53.56;95014.75;5100401;28;20039;-84
2022/08/01 03:31:51;;;;;;;12.18;3.75;;;;;;;18.85;53.97;95041.22;5100500;28;20505;-84
2022/08/01 03:34:20;;;;;;;8.23;4.53;;;;;;;19.30;54.15;95091.56;5081545;28;20042;-84
2022/08/01 03:36:53;;;;;;;8.23;4.07;;;;;;;19.03;53.87;95036.50;5080629;28;20082;-84
2022/08/01 03:39:22;;;;;;;16.58;5.47;;;;;;;19.03;53.92;95017.66;5081501;28;20057;-84
2022/08/01 03:41:54;;;;;;;5.53;3.58;;;;;;;19.63;53.53;95095.09;5081156;28;20479;-85
2022/08/01 03:44:25;;;;;;;8.07;3.83;;;;;;;19.02;53.46;95018.78;5080981;28;20043;-84
2022/08/01 03:46:59;;;;;;;9.65;4.10;;;;;;;19.09;53.07;95024.41;5081372;28;20142;-84
2022/08/01 03:49:31;;;;;;;7.18;4.32;;;;;;;19.10;52.42;95028.69;5081298;28;20039;-86
2022/08/01 03:52:00;;;;;;;6.60;4.05;;;;;;;19.49;53.55;95043.50;5081622;28;20248;-84
2022/08/01 03:54:33;;;;;;;8.63;3.97;;;;;;;19.96;53.09;95105.03;5084506;28;20082;-85
2022/08/01 03:57:00;;;;;;;5.10;3.45;;;;;;;19.54;52.69;95035.22;5085613;28;20126;-84
2022/08/01 03:59:26;;;;;;;11.07;4.63;;;;;;;18.97;52.33;94937.59;5084891;28;20045;-84
2022/08/01 04:01:53;;;;;;;9.82;4.70;;;;;;;19.64;52.83;95077.84;5103200;28;20047;-85
2022/08/01 04:04:19;;;;;;;11.43;5.32;;;;;;;19.95;52.86;95106.16;5104456;28;20027;-85
2022/08/01 04:06:44;;;;;;;14.77;5.00;;;;;;;19.28;52.95;95024.72;5085127;28;20036;-84
2022/08/01 04:09:11;;;;;;;7.70;5.15;;;;;;;19.69;53.24;95108.31;5084735;28;20050;-84
2022/08/01 04:11:37;;;;;;;12.63;5.03;;;;;;;18.82;53.24;94961.28;5085397;28;20035;-84
2022/08/01 04:14:03;;;;;;;7.78;4.90;;;;;;;18.91;53.51;94998.81;5084383;28;20569;-84
2022/08/01 04:16:28;;;;;;;9.20;5.30;;;;;;;19.50;54.15;95111.53;5084470;28;20435;-84
2022/08/01 04:18:54;;;;;;;9.98;5.07;;;;;;;18.88;53.60;95023.66;5084580;28;20042;-84
2022/08/01 04:21:24;;;;;;;7.85;5.03;;;;;;;19.03;53.22;95031.13;5103156;28;20156;-85
2022/08/01 04:23:52;;;;;;;16.92;6.07;;;;;;;19.74;53.08;95118.88;5085002;28;20043;-85
2022/08/01 04:26:20;;;;;;;15.23;6.53;;;;;;;18.96;53.12;94992.44;5083917;28;20119;-84
2022/08/01 04:28:47;;;;;;;18.75;6.68;;;;;;;19.00;53.61;95023.69;5084787;28;20043;-85
2022/08/01 04:31:16;;;;;;;10.32;5.70;;;;;;;19.18;54.00;95059.28;5102988;28;20035;-84
2022/08/01 04:33:45;;;;;;;16.80;6.13;;;;;;;18.72;53.91;94990.44;5084050;28;20130;-84
2022/08/01 04:36:14;;;;;;;16.73;6.85;;;;;;;18.93;54.07;95047.63;5102871;28;20054;-84
2022/08/01 04:38:42;;;;;;;14.38;6.30;;;;;;;18.79;54.54;95025.63;5083523;28;20053;-84
2022/08/01 04:41:10;;;;;;;16.20;7.55;;;;;;;18.43;53.98;94970.59;5102708;28;20043;-84
2022/08/01 04:43:41;;;;;;;13.52;7.68;;;;;;;19.22;54.35;95087.84;5084588;28;20039;-85
2022/08/01 04:46:08;;;;;;;17.17;7.25;;;;;;;18.99;54.29;95050.94;5084080;28;20458;-84
2022/08/01 04:48:37;;;;;;;14.23;7.85;;;;;;;18.42;54.45;94942.16;5083825;28;20138;-84
2022/08/01 04:51:03;;;;;;;13.65;7.55;;;;;;;19.30;54.45;95086.19;5084949;28;20086;-85
2022/08/01 04:53:29;;;;;;;14.63;7.05;;;;;;;19.55;53.93;95089.78;5083611;28;20043;-84
2022/08/01 04:55:55;;;;;;;17.73;7.40;;;;;;;19.03;53.58;95027.63;5083116;28;20059;-85
2022/08/01 04:58:21;;;;;;;19.65;7.32;;;;;;;19.37;53.33;95073.03;5080226;28;20058;-84
2022/08/01 05:00:46;;;;;;;22.65;7.97;;;;;;;19.37;53.66;95072.25;5080462;28;20044;-85
2022/08/01 05:03:12;;;;;;;17.92;8.10;;;;;;;18.76;53.62;94997.53;5082649;28;20860;-85
2022/08/01 05:05:37;;;;;;;15.90;7.55;;;;;;;18.93;53.78;94988.50;5078118;28;20043;-85
2022/08/01 05:08:03;;;;;;;16.42;8.18;;;;;;;19.28;54.19;95066.94;5082260;28;20040;-85
2022/08/01 05:10:28;;;;;;;23.67;7.95;;;;;;;19.57;53.66;95069.53;5061336;28;20422;-85
2022/08/01 05:12:54;;;;;;;15.43;7.60;;;;;;;19.10;53.08;95022.50;5061375;28;20423;-85
2022/08/01 05:15:20;;;;;;;22.15;7.13;;;;;;;18.74;52.69;94961.34;5061656;28;20510;-84
2022/08/01 05:17:46;;;;;;;18.42;6.20;;;;;;;19.00;52.53;95017.53;5062251;28;20028;-84
2022/08/01 05:20:12;;;;;;;17.20;6.55;;;;;;;19.23;52.29;95067.13;5081216;28;20399;-84
2022/08/01 05:22:38;;;;;;;11.30;6.07;;;;;;;18.88;52.63;95021.75;5078738;28;20152;-84
2022/08/01 05:25:07;;;;;;;15.02;6.55;;;;;;;19.45;51.58;95088.31;5074198;28;20117;-84
2022/08/01 05:27:38;;;;;;;12.40;5.80;;;;;;;19.08;52.00;95028.22;5100346;28;20058;-85
2022/08/01 05:30:04;;;;;;;7.68;4.60;;;;;;;19.46;51.34;95100.59;5080153;28;20362;-85
2022/08/01 05:32:31;;;;;;;9.05;5.40;;;;;;;19.00;51.29;95022.91;5080434;28;20036;-85
2022/08/01 05:34:57;;;;;;;9.77;5.07;;;;;;;19.15;50.69;95038.41;5084300;28;20042;-85
2022/08/01 05:37:22;;;;;;;17.20;6.28;;;;;;;18.44;51.05;94923.84;5099567;28;20420;-85
2022/08/01 05:39:47;;;;;;;7.90;4.43;;;;;;;19.64;50.60;95093.19;5081509;28;20568;-85
2022/08/01 05:42:13;;;;;;;12.98;5.32;;;;;;;19.15;50.53;95004.25;5083355;28;20043;-84
2022/08/01 05:44:38;;;;;;;10.60;5.10;;;;;;;18.99;50.42;94981.84;5062409;28;20514;-85
2022/08/01 05:47:04;;;;;;;10.65;4.60;;;;;;;19.81;50.78;95098.41;5061220;28;20214;-85
2022/08/01 05:49:29;;;;;;;11.48;4.93;;;;;;;19.63;50.65;95070.88;5080051;28;20036;-85
2022/08/01 05:51:55;;;;;;;10.13;4.82;;;;;;;19.61;50.54;95062.34;5061849;28;20171;-85
2022/08/01 05:54:20;;;;;;;17.10;5.40;;;;;;;19.69;50.87;95051.81;5060697;28;20035;-86
2022/08/01 05:56:46;;;;;;;11.68;4.47;;;;;;;19.02;49.99;94943.53;5060723;28;20039;-85
2022/08/01 05:59:11;;;;;;;11.93;4.60;;;;;;;19.26;49.78;94973.16;5081652;28;20028;-84
2022/08/01 06:01:36;;;;;;;9.13;4.20;;;;;;;19.36;49.28;94998.84;5062667;28;20501;-84
2022/08/01 06:04:02;;;;;;;12.93;4.80;;;;;;;19.55;49.69;95012.56;5062216;28;20142;-85
2022/08/01 06:06:27;;;;;;;11.57;4.70;;;;;;;19.98;49.05;95075.88;5061346;28;20036;-83
2022/08/01 06:08:53;;;;;;;10.60;4.10;;;;;;;19.71;48.90;95044.22;5059282;28;20040;-84
2022/08/01 06:11:18;;;;;;;6.95;3.75;;;;;;;19.47;49.04;95000.00;5061894;28;20038;-84
2022/08/01 06:13:44;;;;;;;9.10;3.78;;;;;;;19.62;48.03;94999.34;5062446;28;20647;-84
2022/08/01 06:16:09;;;;;;;7.05;3.40;;;;;;;19.72;47.91;95018.88;5060548;28;20127;-84
2022/08/01 06:18:35;;;;;;;6.05;3.83;;;;;;;19.80;48.59;95031.44;5061324;28;20535;-85
2022/08/01 06:21:00;;;;;;;7.82;3.65;;;;;;;20.16;48.92;95076.44;5079068;28;20036;-84
2022/08/01 06:23:26;;;;;;;9.27;3.63;;;;;;;20.14;49.21;95094.84;5060485;28;20028;-84
2022/08/01 06:25:54;;;;;;;10.63;3.50;;;;;;;19.89;48.92;95032.91;5079560;28;20027;-84
2022/08/01 06:28:21;;;;;;;11.73;4.07;;;;;;;19.90;49.05;95015.66;5078865;28;20374;-84
2022/08/01 06:30:47;;;;;;;10.07;3.95;;;;;;;20.03;48.11;95051.44;5062024;28;20435;-84
2022/08/01 06:33:12;;;;;;;10.35;3.38;;;;;;;20.12;48.27;95025.19;5083317;28;20165;-84
2022/08/01 06:35:38;;;;;;;9.48;3.75;;;;;;;20.65;47.67;95094.19;5080373;28;20097;-84
2022/08/01 06:38:03;;;;;;;8.73;3.55;;;;;;;20.42;46.91;95039.22;5081111;28;20055;-84
2022/08/01 06:40:29;;;;;;;8.38;2.75;;;;;;;20.17;46.19;95008.78;5070906;28;20035;-84
2022/08/01 06:42:54;;;;;;;7.93;2.63;;;;;;;20.32;44.33;95007.31;5059843;28;20392;-84
2022/08/01 06:45:22;;;;;;;6.25;2.85;;;;;;;20.73;45.14;95042.09;5061804;28;20259;-84
2022/08/01 06:47:48;;;;;;;5.38;2.85;;;;;;;20.61;44.36;95006.28;5060897;28;20038;-84
2022/08/01 06:50:14;;;;;;;14.05;2.80;;;;;;;20.64;43.29;95022.56;5061549;28;20039;-84
2022/08/01 06:52:41;;;;;;;6.85;2.90;;;;;;;20.56;43.24;95050.41;5061206;28;20444;-84
2022/08/01 06:55:07;;;;;;;2.70;2.30;;;;;;;20.44;43.66;94985.81;5081191;28;20458;-84
2022/08/01 06:57:33;;;;;;;9.18;2.92;;;;;;;20.59;43.74;95030.09;5079150;28;20028;-84
2022/08/01 07:00:03;;;;;;;7.10;2.75;;;;;;;20.45;43.90;94978.47;5063121;28;20074;-84
2022/08/01 07:02:29;;;;;;;6.10;3.40;;;;;;;20.61;44.07;94996.28;5062051;28;20032;-84
2022/08/01 07:04:54;;;;;;;7.15;2.97;;;;;;;20.80;43.58;95028.81;5076046;28;20028;-84
2022/08/01 07:07:19;;;;;;;7.07;2.88;;;;;;;20.85;43.84;95056.63;5073763;28;20044;-84
2022/08/01 07:09:45;;;;;;;9.70;2.80;;;;;;;20.76;44.13;95025.22;5086533;28;20083;-84
2022/08/01 07:12:11;;;;;;;6.97;3.30;;;;;;;20.61;44.29;94998.97;5067295;28;20077;-84
2022/08/01 07:14:36;;;;;;;3.75;2.67;;;;;;;20.53;44.37;94988.34;5064434;28;20042;-84
2022/08/01 07:17:02;;;;;;;5.53;2.53;;;;;;;20.76;44.11;95000.19;5084825;28;20448;-84
2022/08/01 07:19:27;;;;;;;8.35;3.13;;;;;;;20.83;44.41;95002.31;5063582;28;20287;-84
2022/08/01 07:21:53;;;;;;;7.22;3.03;;;;;;;21.04;44.28;95043.34;5063581;28;20039;-84
2022/08/01 07:24:18;;;;;;;8.02;3.13;;;;;;;21.00;44.03;95018.19;5063330;28;20060;-84
2022/08/01 07:26:46;;;;;;;9.27;3.33;;;;;;;21.13;44.09;95035.91;5061028;28;20036;-84
2022/08/01 07:29:12;;;;;;;5.07;2.50;;;;;;;20.85;43.66;95003.53;5082120;28;20036;-84
2022/08/01 07:31:37;;;;;;;4.63;2.97;;;;;;;21.06;43.69;95022.19;5083840;28;20104;-84
2022/08/01 07:34:03;;;;;;;11.40;2.80;;;;;;;21.09;43.34;95027.69;5094963;28;20039;-84
2022/08/01 07:36:29;;;;;;;4.43;3.42;;;;;;;21.41;43.47;95049.38;5082689;28;20096;-83
2022/08/01 07:38:55;;;;;;;4.55;3.20;;;;;;;21.51;42.91;95070.47;5082833;28;20108;-84
2022/08/01 07:41:21;;;;;;;5.47;3.10;;;;;;;21.14;43.04;95053.63;5084331;28;20039;-84
2022/08/01 07:43:48;;;;;;;5.45;3.50;;;;;;;21.52;43.18;95082.81;5084617;28;20167;-84
2022/08/01 07:46:14;;;;;;;10.55;3.15;;;;;;;20.79;42.84;94951.78;5084544;28;20036;-84
2022/08/01 07:48:39;;;;;;;5.15;3.17;;;;;;;21.54;42.93;95072.47;5082536;28;20066;-84
2022/08/01 07:51:05;;;;;;;13.30;2.88;;;;;;;20.65;43.43;94927.13;5082876;28;20580;-84
2022/08/01 07:53:30;;;;;;;4.00;2.53;;;;;;;21.18;43.07;95031.06;5084403;28;20043;-84
2022/08/01 07:55:56;;;;;;;8.48;2.97;;;;;;;21.31;42.74;95023.69;5102072;28;20064;-84
2022/08/01 07:58:21;;;;;;;6.13;3.20;;;;;;;20.98;43.40;94969.22;5084370;28;20498;-84
2022/08/01 08:00:46;;;;;;;5.32;3.30;;;;;;;20.75;43.42;94937.41;5083129;28;20035;-84
2022/08/01 08:03:12;;;;;;;8.15;3.05;;;;;;;21.09;43.62;94962.97;5083278;28;20051;-83
2022/08/01 08:05:37;;;;;;;5.72;2.83;;;;;;;21.31;43.84;94985.16;5082761;28;20040;-84
2022/08/01 08:08:08;;;;;;;5.03;2.47;;;;;;;21.74;43.55;95060.66;5101229;28;20074;-84
2022/08/01 08:10:33;;;;;;;5.68;2.90;;;;;;;21.86;43.28;95084.09;5101102;28;20043;-83
2022/08/01 08:13:00;;;;;;;12.23;3.20;;;;;;;21.93;43.14;95079.66;5082416;28;20031;-83
2022/08/01 08:15:26;;;;;;;5.07;3.33;;;;;;;21.97;43.41;95060.13;5083839;28;20032;-83
2022/08/01 08:17:51;;;;;;;7.78;3.42;;;;;;;21.29;43.28;94949.63;5082684;28;20416;-84
2022/08/01 08:20:16;;;;;;;7.40;3.10;;;;;;;21.45;43.22;94988.19;5101455;28;20031;-84
2022/08/01 08:22:42;;;;;;;4.53;2.70;;;;;;;21.71;41.63;95009.31;5083671;28;20040;-84
2022/08/01 08:25:08;;;;;;;6.13;3.25;;;;;;;21.62;42.74;95005.97;5083124;28;20032;-84
2022/08/01 08:27:34;;;;;;;7.10;3.17;;;;;;;21.42;42.58;94992.41;5082520;28;20625;-84
2022/08/01 08:30:00;;;;;;;4.40;2.90;;;;;;;22.28;42.95;95068.19;5082973;28;20031;-84
2022/08/01 08:32:26;;;;;;;7.15;2.97;;;;;;;21.88;42.20;95028.66;5083700;28;20118;-84
2022/08/01 08:34:51;;;;;;;7.03;3.00;;;;;;;21.29;41.27;94952.34;5101880;28;20031;-84
2022/08/01 08:37:17;;;;;;;5.60;3.30;;;;;;;21.65;41.93;95008.78;5083613;28;20038;-84
2022/08/01 08:39:43;;;;;;;10.52;3.78;;;;;;;21.89;42.15;95030.19;5101580;28;20055;-83
2022/08/01 08:42:11;;;;;;;3.63;2.63;;;;;;;21.68;42.03;94989.19;5102199;28;20031;-83
2022/08/01 08:44:38;;;;;;;5.85;2.75;;;;;;;21.92;41.20;95053.81;5083277;28;20526;-84
2022/08/01 08:47:07;;;;;;;9.82;2.85;;;;;;;21.31;41.57;94974.34;5082317;28;20525;-84
2022/08/01 08:49:34;;;;;;;5.55;3.20;;;;;;;21.83;40.98;95028.88;5082164;28;20341;-84
2022/08/01 08:52:01;;;;;;;6.65;3.05;;;;;;;21.94;41.72;95023.75;5101702;28;20051;-84
2022/08/01 08:54:28;;;;;;;9.10;2.85;;;;;;;21.50;41.18;94967.16;5049990;28;20604;-84
2022/08/01 08:56:55;;;;;;;6.93;2.78;;;;;;;22.32;41.55;95066.38;5042713;28;20116;-84
2022/08/01 08:59:21;;;;;;;9.48;2.92;;;;;;;22.39;39.76;95063.03;5071376;28;20063;-85
2022/08/01 09:01:47;;;;;;;7.38;2.85;;;;;;;22.36;39.93;95061.81;5063231;28;20035;-84
2022/08/01 09:04:13;;;;;;;7.25;2.67;;;;;;;22.42;39.08;95073.94;5063015;28;20485;-84
2022/08/01 09:06:39;;;;;;;7.15;2.78;;;;;;;22.53;39.87;95074.19;5062923;28;20040;-84
2022/08/01 09:09:06;;;;;;;5.72;2.63;;;;;;;22.43;40.27;95048.47;5063197;28;20510;-85
2022/08/01 09:11:31;;;;;;;6.10;2.88;;;;;;;22.40;40.06;95032.19;5061906;28;20268;-84
2022/08/01 09:14:07;;;;;;;5.70;2.45;;;;;;;21.49;39.59;94900.84;5080484;28;20084;-84
2022/08/01 09:16:35;;;;;;;4.32;2.60;;;;;;;22.18;39.66;94996.59;5063494;28;20128;-84
2022/08/01 09:19:14;;;;;;;5.50;2.55;;;;;;;22.66;39.34;95070.22;5069457;28;20501;-84
2022/08/01 09:21:54;;;;;;;4.28;2.47;;;;;;;22.24;39.59;94962.78;5082540;28;20130;-84
2022/08/01 09:24:20;;;;;;;5.85;2.53;;;;;;;22.52;39.15;94994.22;5097502;28;20523;-84
2022/08/01 09:26:45;;;;;;;5.10;2.72;;;;;;;21.85;38.11;94909.75;5076066;28;20032;-84
2022/08/01 09:29:18;;;;;;;5.30;2.88;;;;;;;22.38;38.59;94969.63;5062626;28;20059;-84
2022/08/01 09:31:45;;;;;;;10.90;3.00;;;;;;;22.51;38.46;95003.47;5081739;28;20135;-84
2022/08/01 09:34:10;;;;;;;4.47;2.47;;;;;;;22.65;38.09;95023.50;5074462;28;20054;-84
2022/08/01 09:36:51;;;;;;;9.93;3.20;;;;;;;22.00;38.33;94894.69;5101230;28;20032;-84
2022/08/01 09:39:21;;;;;;;9.80;2.70;;;;;;;22.87;37.60;95048.31;5100595;28;20052;-84
2022/08/01 09:41:48;;;;;;;5.10;2.47;;;;;;;23.02;37.87;95047.47;5080076;28;20527;-84
2022/08/01 09:44:14;;;;;;;5.20;2.38;;;;;;;22.53;37.75;94991.19;5100336;28;20562;-84
2022/08/01 09:46:51;;;;;;;7.30;2.65;;;;;;;22.79;38.41;95041.19;5081154;28;20565;-84
2022/08/01 09:49:27;;;;;;;4.50;2.42;;;;;;;22.46;38.16;94958.59;5100261;28;20035;-84
2022/08/01 09:51:53;;;;;;;6.55;3.13;;;;;;;22.69;38.42;94997.31;5081488;28;20040;-84
2022/08/01 09:54:29;;;;;;;4.93;2.28;;;;;;;23.08;37.28;95017.09;5101777;28;20074;-84
2022/08/01 09:57:08;;;;;;;4.43;2.45;;;;;;;23.73;36.84;95027.19;5100673;28;20124;-84
2022/08/01 09:59:40;;;;;;;5.15;2.88;;;;;;;24.39;36.67;95029.47;5081080;28;20028;-83
2022/08/01 10:02:05;;;;;;;4.40;2.72;;;;;;;24.76;35.48;94971.88;5082026;28;20035;-84
2022/08/01 10:04:31;;;;;;;5.40;3.22;;;;;;;25.77;33.79;95038.59;5082054;28;20096;-84
2022/08/01 10:07:05;;;;;;;6.07;2.45;;;;;;;25.73;32.51;94978.78;5081290;28;20038;-84
2022/08/01 10:09:36;;;;;;;4.55;2.45;;;;;;;26.01;32.44;94982.91;5082030;28;20057;-84
2022/08/01 10:12:03;;;;;;;6.03;2.70;;;;;;;25.64;32.39;94940.31;5082771;28;20035;-84
2022/08/01 10:14:29;;;;;;;4.25;2.78;;;;;;;26.08;33.34;94975.59;5081656;28;20054;-84
2022/08/01 10:16:56;;;;;;;3.40;2.20;;;;;;;25.79;33.40;94995.53;5081399;28;20497;-83
2022/08/01 10:19:24;;;;;;;6.82;2.85;;;;;;;26.54;32.80;95034.22;5080415;28;20303;-84
2022/08/01 10:21:53;;;;;;;11.57;2.53;;;;;;;26.88;32.11;94990.09;5081316;28;20104;-85
2022/08/01 10:24:20;;;;;;;6.55;2.60;;;;;;;27.48;31.11;95033.13;5082631;28;20046;-85
2022/08/01 10:26:49;;;;;;;8.02;2.65;;;;;;;28.15;30.76;95042.63;5081384;28;20043;-85
2022/08/01 10:29:18;;;;;;;5.63;2.40;;;;;;;27.45;30.83;95016.78;5099532;28;20047;-84
2022/08/01 10:31:45;;;;;;;6.97;2.38;;;;;;;26.98;30.97;94953.25;5080500;28;20167;-85
2022/08/01 10:34:11;;;;;;;7.60;2.60;;;;;;;27.56;30.83;95009.44;5100050;28;20550;-85
2022/08/01 10:36:38;;;;;;;4.78;2.50;;;;;;;27.93;30.16;95009.09;5081571;28;20040;-85
2022/08/01 10:39:06;;;;;;;7.93;2.25;;;;;;;27.20;31.03;94941.25;5082719;28;20051;-85
2022/08/01 10:41:34;;;;;;;4.75;2.10;;;;;;;27.41;30.50;94926.13;5101366;28;20043;-85
2022/08/01 10:44:01;;;;;;;3.55;2.15;;;;;;;27.64;30.95;94951.06;5081630;28;20035;-84
2022/08/01 10:46:27;;;;;;;4.53;2.00;;;;;;;28.21;30.47;94997.47;5081879;28;20207;-85
2022/08/01 10:49:06;;;;;;;5.07;2.40;;;;;;;27.82;30.64;94986.53;5082919;28;20546;-84
2022/08/01 10:51:37;;;;;;;6.00;2.00;;;;;;;27.65;31.16;94998.94;5081756;28;20130;-85
2022/08/01 10:54:05;;;;;;;7.82;2.53;;;;;;;27.60;30.76;94966.66;5081384;28;20063;-84
2022/08/01 10:56:40;;;;;;;3.30;2.20;;;;;;;28.01;30.39;95016.88;5081465;28;20041;-84
2022/08/01 10:59:06;;;;;;;6.32;2.13;;;;;;;27.74;29.97;94966.66;5083766;28;20793;-85
2022/08/01 11:01:33;;;;;;;4.60;2.13;;;;;;;27.52;29.91;94916.81;5099049;28;20126;-84
2022/08/01 11:04:03;;;;;;;6.63;2.22;;;;;;;28.07;29.99;95041.06;5099146;28;20122;-84
2022/08/01 11:06:38;;;;;;;4.28;2.35;;;;;;;27.36;30.17;94954.50;5080559;28;20047;-85
2022/08/01 11:09:26;;;;;;;4.28;2.20;;;;;;;27.48;30.40;94989.53;5080735;28;20474;-85
2022/08/01 11:12:05;;;;;;;6.38;2.33;;;;;;;27.85;31.01;95023.88;5079534;28;20039;-85
2022/08/01 11:14:31;;;;;;;3.05;2.10;;;;;;;27.76;30.53;94988.06;5098148;28;20493;-84
2022/08/01 11:17:35;;;;;;;4.57;2.10;;;;;;;27.87;30.96;95003.25;5097959;28;20035;-85
2022/08/01 11:20:11;;;;;;;7.40;2.63;;;;;;;27.49;30.47;94946.75;5078506;28;20046;-85
2022/08/01 11:22:59;;;;;;;8.75;2.35;;;;;;;28.01;30.55;94997.81;5080747;28;20041;-84
2022/08/01 11:25:48;;;;;;;7.05;2.45;;;;;;;27.95;30.25;94958.47;5098086;28;20039;-84
2022/08/01 11:28:14;;;;;;;5.00;2.20;;;;;;;28.23;30.27;94995.09;5080386;28;20051;-84
2022/08/01 11:30:40;;;;;;;4.97;2.08;;;;;;;28.13;29.76;95004.84;5078918;28;20115;-84
2022/08/01 11:33:07;;;;;;;6.05;1.85;;;;;;;27.82;30.81;94994.69;5098513;28;20036;-84
2022/08/01 11:35:34;;;;;;;4.68;2.40;;;;;;;27.98;30.09;94968.63;5080523;28;20134;-85
2022/08/01 11:38:29;;;;;;;5.47;2.20;;;;;;;28.00;30.19;94982.63;5064265;28;20052;-84